sensor_id;sensor_type;location;lat;lon;timestamp;pressure;altitude;pressure_sealevel;temperature;humidity
56198;BME280;42700;42.524;12.052;2022-08-06T00:01:03;95813.72;;;24.83;100.00
56198;BME280;42700;42.524;12.052;2022-08-06T00:03:28;95823.75;;;24.82;100.00
56198;BME280;42700;42.524;12.052;2022-08-06T00:05:54;95840.03;;;24.82;100.00
56198;BME280;42700;42.524;12.052;2022-08-06T00:08:19;95848.69;;;24.84;100.00
56198;BME280;42700;42.524;12.052;2022-08-06T00:10:45;95842.75;;;24.82;100.00
56198;BME280;42700;42.524;12.052;2022-08-06T00:13:11;95848.69;;;24.84;100.00
56198;BME280;42700;42.524;12.052;2022-08-06T00:15:37;95844.50;;;24.78;100.00
56198;BME280;42700;42.524;12.052;2022-08-06T00:18:02;95827.22;;;24.74;100.00
56198;BME280;42700;42.524;12.052;2022-08-06T00:20:28;95838.06;;;24.74;100.00
56198;BME280;42700;42.524;12.052;2022-08-06T00:22:53;95820.34;;;24.68;100.00
56198;BME280;42700;42.524;12.052;2022-08-06T00:25:19;95808.66;;;24.59;100.00
56198;BME280;42700;42.524;12.052;2022-08-06T00:27:45;95796.44;;;24.47;100.00
56198;BME280;42700;42.524;12.052;2022-08-06T00:30:10;95797.06;;;24.44;100.00
56198;BME280;42700;42.524;12.052;2022-08-06T00:32:36;95801.81;;;24.39;100.00
56198;BME280;42700;42.524;12.052;2022-08-06T00:35:02;95797.94;;;24.31;100.00
56198;BME280;42700;42.524;12.052;2022-08-06T00:37:27;95788.50;;;24.20;100.00
56198;BME280;42700;42.524;12.052;2022-08-06T00:39:57;95781.72;;;24.08;100.00
56198;BME280;42700;42.524;12.052;2022-08-06T00:42:23;95771.63;;;24.00;100.00
56198;BME280;42700;42.524;12.052;2022-08-06T00:44:48;95772.88;;;23.94;100.00
56198;BME280;42700;42.524;12.052;2022-08-06T00:47:14;95776.69;;;23.93;100.00
56198;BME280;42700;42.524;12.052;2022-08-06T00:49:39;95784.31;;;23.91;100.00
56198;BME280;42700;42.524;12.052;2022-08-06T00:52:05;95781.75;;;23.86;100.00
56198;BME280;42700;42.524;12.052;2022-08-06T00:54:30;95790.97;;;23.85;100.00
56198;BME280;42700;42.524;12.052;2022-08-06T00:56:56;95788.34;;;23.80;100.00
56198;BME280;42700;42.524;12.052;2022-08-06T00:59:21;95766.94;;;23.69;100.00
56198;BME280;42700;42.524;12.052;2022-08-06T01:01:47;95760.66;;;23.60;100.00
56198;BME280;42700;42.524;12.052;2022-08-06T01:04:12;95760.09;;;23.49;100.00
56198;BME280;42700;42.524;12.052;2022-08-06T01:06:38;95751.91;;;23.40;100.00
56198;BME280;42700;42.524;12.052;2022-08-06T01:09:03;95733.97;;;23.31;100.00
56198;BME280;42700;42.524;12.052;2022-08-06T01:11:29;95735.69;;;23.27;100.00
56198;BME280;42700;42.524;12.052;2022-08-06T01:13:54;95731.19;;;23.22;100.00
56198;BME280;42700;42.524;12.052;2022-08-06T01:18:57;95768.47;;;23.25;100.00
56198;BME280;42700;42.524;12.052;2022-08-06T01:29:18;95841.25;;;23.40;100.00
56198;BME280;42700;42.524;12.052;2022-08-06T01:31:52;95831.16;;;23.32;100.00
56198;BME280;42700;42.524;12.052;2022-08-06T01:34:23;95822.84;;;23.29;100.00
56198;BME280;42700;42.524;12.052;2022-08-06T01:36:54;95838.66;;;23.35;100.00
56198;BME280;42700;42.524;12.052;2022-08-06T01:39:21;95833.66;;;23.29;100.00
56198;BME280;42700;42.524;12.052;2022-08-06T01:41:51;95825.13;;;23.21;100.00
56198;BME280;42700;42.524;12.052;2022-08-06T01:44:18;95809.31;;;23.15;100.00
56198;BME280;42700;42.524;12.052;2022-08-06T01:46:45;95803.41;;;23.13;100.00
56198;BME280;42700;42.524;12.052;2022-08-06T01:49:11;95799.19;;;23.07;100.00
56198;BME280;42700;42.524;12.052;2022-08-06T01:51:39;95797.34;;;23.02;100.00
56198;BME280;42700;42.524;12.052;2022-08-06T01:54:06;95795.97;;;23.04;100.00
56198;BME280;42700;42.524;12.052;2022-08-06T01:56:34;95799.19;;;23.07;100.00
56198;BME280;42700;42.524;12.052;2022-08-06T01:59:00;95791.16;;;23.01;100.00
56198;BME280;42700;42.524;12.052;2022-08-06T02:01:27;95761.09;;;22.89;100.00
56198;BME280;42700;42.524;12.052;2022-08-06T02:03:55;95748.28;;;22.81;100.00
56198;BME280;42700;42.524;12.052;2022-08-06T02:06:22;95745.06;;;22.79;100.00
56198;BME280;42700;42.524;12.052;2022-08-06T02:08:50;95766.72;;;22.79;100.00
56198;BME280;42700;42.524;12.052;2022-08-06T02:11:16;95766.22;;;22.77;100.00
56198;BME280;42700;42.524;12.052;2022-08-06T02:13:42;95787.25;;;22.80;100.00
56198;BME280;42700;42.524;12.052;2022-08-06T02:16:09;95799.16;;;22.79;100.00
56198;BME280;42700;42.524;12.052;2022-08-06T02:18:39;95816.41;;;22.83;100.00
56198;BME280;42700;42.524;12.052;2022-08-06T02:21:09;95802.56;;;22.71;100.00
56198;BME280;42700;42.524;12.052;2022-08-06T02:23:35;95773.31;;;22.59;100.00
56198;BME280;42700;42.524;12.052;2022-08-06T02:26:02;95749.69;;;22.51;100.00
56198;BME280;42700;42.524;12.052;2022-08-06T02:28:30;95742.69;;;22.50;100.00
56198;BME280;42700;42.524;12.052;2022-08-06T02:30:57;95764.53;;;22.53;100.00
56198;BME280;42700;42.524;12.052;2022-08-06T02:33:23;95772.34;;;22.55;100.00
56198;BME280;42700;42.524;12.052;2022-08-06T02:35:51;95792.56;;;22.57;100.00
56198;BME280;42700;42.524;12.052;2022-08-06T02:38:22;95801.69;;;22.61;100.00
56198;BME280;42700;42.524;12.052;2022-08-06T02:40:53;95813.00;;;22.63;100.00
56198;BME280;42700;42.524;12.052;2022-08-06T02:43:22;95816.19;;;22.65;100.00
56198;BME280;42700;42.524;12.052;2022-08-06T02:45:59;95817.31;;;22.64;100.00
56198;BME280;42700;42.524;12.052;2022-08-06T02:48:42;95807.41;;;22.60;100.00
56198;BME280;42700;42.524;12.052;2022-08-06T02:51:10;95805.78;;;22.59;100.00
56198;BME280;42700;42.524;12.052;2022-08-06T02:53:42;95808.78;;;22.57;100.00
56198;BME280;42700;42.524;12.052;2022-08-06T02:56:10;95814.72;;;22.59;100.00
56198;BME280;42700;42.524;12.052;2022-08-06T02:58:37;95815.59;;;22.55;100.00
56198;BME280;42700;42.524;12.052;2022-08-06T03:01:06;95811.59;;;22.52;100.00
56198;BME280;42700;42.524;12.052;2022-08-06T03:03:33;95815.91;;;22.53;100.00
56198;BME280;42700;42.524;12.052;2022-08-06T03:05:59;95817.41;;;22.59;100.00
56198;BME280;42700;42.524;12.052;2022-08-06T03:08:26;95789.34;;;22.55;100.00
56198;BME280;42700;42.524;12.052;2022-08-06T03:10:53;95782.53;;;22.44;100.00
56198;BME280;42700;42.524;12.052;2022-08-06T03:13:19;95754.59;;;22.35;100.00
56198;BME280;42700;42.524;12.052;2022-08-06T03:15:47;95724.41;;;22.27;100.00
56198;BME280;42700;42.524;12.052;2022-08-06T03:18:13;95690.81;;;22.34;100.00
56198;BME280;42700;42.524;12.052;2022-08-06T03:20:41;95677.41;;;22.28;100.00
56198;BME280;42700;42.524;12.052;2022-08-06T03:23:07;95659.34;;;22.24;100.00
56198;BME280;42700;42.524;12.052;2022-08-06T03:25:36;95662.34;;;22.22;100.00
56198;BME280;42700;42.524;12.052;2022-08-06T03:28:03;95669.66;;;22.22;100.00
56198;BME280;42700;42.524;12.052;2022-08-06T03:30:29;95674.38;;;22.16;100.00
56198;BME280;42700;42.524;12.052;2022-08-06T03:32:55;95649.13;;;22.07;100.00
56198;BME280;42700;42.524;12.052;2022-08-06T03:35:21;95628.13;;;22.04;100.00
56198;BME280;42700;42.524;12.052;2022-08-06T03:37:47;95614.69;;;21.99;100.00
56198;BME280;42700;42.524;12.052;2022-08-06T03:40:13;95596.38;;;21.96;100.00
56198;BME280;42700;42.524;12.052;2022-08-06T03:42:40;95585.38;;;21.92;100.00
56198;BME280;42700;42.524;12.052;2022-08-06T03:45:06;95575.97;;;21.89;100.00
56198;BME280;42700;42.524;12.052;2022-08-06T03:47:33;95589.47;;;21.89;100.00
56198;BME280;42700;42.524;12.052;2022-08-06T03:52:28;95607.09;;;21.87;100.00
56198;BME280;42700;42.524;12.052;2022-08-06T03:54:55;95618.19;;;21.85;100.00
56198;BME280;42700;42.524;12.052;2022-08-06T03:57:24;95632.31;;;21.82;100.00
56198;BME280;42700;42.524;12.052;2022-08-06T03:59:52;95638.28;;;21.79;100.00
56198;BME280;42700;42.524;12.052;2022-08-06T04:02:18;95654.94;;;21.86;100.00
56198;BME280;42700;42.524;12.052;2022-08-06T04:04:44;95632.00;;;21.84;100.00
56198;BME280;42700;42.524;12.052;2022-08-06T04:07:12;95639.31;;;21.83;100.00
56198;BME280;42700;42.524;12.052;2022-08-06T04:09:39;95645.50;;;21.84;100.00
56198;BME280;42700;42.524;12.052;2022-08-06T04:12:04;95644.91;;;21.87;100.00
56198;BME280;42700;42.524;12.052;2022-08-06T04:14:31;95630.91;;;21.85;100.00
56198;BME280;42700;42.524;12.052;2022-08-06T04:16:57;95623.13;;;21.83;100.00
56198;BME280;42700;42.524;12.052;2022-08-06T04:19:23;95594.19;;;21.84;100.00
56198;BME280;42700;42.524;12.052;2022-08-06T04:21:49;95545.06;;;21.82;100.00
56198;BME280;42700;42.524;12.052;2022-08-06T04:24:14;95545.06;;;21.82;100.00
56198;BME280;42700;42.524;12.052;2022-08-06T04:26:42;95628.22;;;21.99;100.00
56198;BME280;42700;42.524;12.052;2022-08-06T04:29:10;95638.34;;;21.93;100.00
56198;BME280;42700;42.524;12.052;2022-08-06T04:31:36;95648.03;;;21.94;100.00
56198;BME280;42700;42.524;12.052;2022-08-06T04:34:02;95624.69;;;21.84;100.00
56198;BME280;42700;42.524;12.052;2022-08-06T04:36:31;95632.69;;;21.89;100.00
56198;BME280;42700;42.524;12.052;2022-08-06T04:38:57;95615.41;;;21.90;100.00
56198;BME280;42700;42.524;12.052;2022-08-06T04:41:23;95588.88;;;21.92;100.00
56198;BME280;42700;42.524;12.052;2022-08-06T04:43:49;95556.75;;;22.05;100.00
56198;BME280;42700;42.524;12.052;2022-08-06T04:46:14;95513.72;;;22.08;100.00
56198;BME280;42700;42.524;12.052;2022-08-06T04:48:40;95481.84;;;22.19;100.00
56198;BME280;42700;42.524;12.052;2022-08-06T04:51:06;95520.56;;;22.42;100.00
56198;BME280;42700;42.524;12.052;2022-08-06T04:53:35;95553.78;;;23.02;100.00
56198;BME280;42700;42.524;12.052;2022-08-06T04:56:02;95518.56;;;23.16;100.00
56198;BME280;42700;42.524;12.052;2022-08-06T04:58:27;95447.22;;;23.12;100.00
56198;BME280;42700;42.524;12.052;2022-08-06T05:00:53;95376.34;;;23.10;100.00
56198;BME280;42700;42.524;12.052;2022-08-06T05:03:18;95321.44;;;23.09;100.00
56198;BME280;42700;42.524;12.052;2022-08-06T05:06:46;95266.50;;;23.09;100.00
56198;BME280;42700;42.524;12.052;2022-08-06T05:08:41;95226.72;;;23.27;100.00
56198;BME280;42700;42.524;12.052;2022-08-06T05:11:22;95212.22;;;23.40;100.00
56198;BME280;42700;42.524;12.052;2022-08-06T05:13:58;95230.56;;;23.52;100.00
56198;BME280;42700;42.524;12.052;2022-08-06T05:16:26;95252.06;;;23.66;100.00
56198;BME280;42700;42.524;12.052;2022-08-06T05:19:00;95293.81;;;23.73;100.00
56198;BME280;42700;42.524;12.052;2022-08-06T05:21:30;95336.84;;;23.92;100.00
56198;BME280;42700;42.524;12.052;2022-08-06T05:23:57;95348.78;;;24.18;100.00
56198;BME280;42700;42.524;12.052;2022-08-06T05:26:22;95311.91;;;24.34;100.00
56198;BME280;42700;42.524;12.052;2022-08-06T05:28:48;95297.84;;;24.58;100.00
56198;BME280;42700;42.524;12.052;2022-08-06T05:31:14;95282.66;;;24.66;100.00
56198;BME280;42700;42.524;12.052;2022-08-06T05:33:39;95246.38;;;24.79;100.00
56198;BME280;42700;42.524;12.052;2022-08-06T05:36:06;95222.50;;;24.94;100.00
56198;BME280;42700;42.524;12.052;2022-08-06T05:38:33;95181.88;;;25.06;100.00
56198;BME280;42700;42.524;12.052;2022-08-06T05:40:59;95138.16;;;25.20;100.00
56198;BME280;42700;42.524;12.052;2022-08-06T05:43:25;95093.53;;;25.30;100.00
56198;BME280;42700;42.524;12.052;2022-08-06T05:45:51;95037.91;;;25.48;100.00
56198;BME280;42700;42.524;12.052;2022-08-06T05:48:18;94947.25;;;25.65;100.00
56198;BME280;42700;42.524;12.052;2022-08-06T05:50:46;94837.78;;;25.77;100.00
56198;BME280;42700;42.524;12.052;2022-08-06T05:53:16;94760.28;;;25.95;100.00
56198;BME280;42700;42.524;12.052;2022-08-06T05:55:48;94810.94;;;26.16;100.00
56198;BME280;42700;42.524;12.052;2022-08-06T05:58:19;94686.22;;;26.30;100.00
56198;BME280;42700;42.524;12.052;2022-08-06T06:00:48;94697.88;;;26.47;100.00
56198;BME280;42700;42.524;12.052;2022-08-06T06:03:16;94652.97;;;26.53;100.00
56198;BME280;42700;42.524;12.052;2022-08-06T06:05:42;94625.41;;;26.70;100.00
56198;BME280;42700;42.524;12.052;2022-08-06T06:08:08;94586.72;;;26.81;100.00
56198;BME280;42700;42.524;12.052;2022-08-06T06:10:34;94435.38;;;26.96;100.00
56198;BME280;42700;42.524;12.052;2022-08-06T06:13:01;94371.22;;;27.18;100.00
56198;BME280;42700;42.524;12.052;2022-08-06T06:15:27;94090.22;;;27.05;100.00
56198;BME280;42700;42.524;12.052;2022-08-06T06:20:46;93816.47;;;27.59;100.00
56198;BME280;42700;42.524;12.052;2022-08-06T06:23:19;93576.38;;;27.68;100.00
56198;BME280;42700;42.524;12.052;2022-08-06T06:25:47;93319.84;;;27.88;100.00
56198;BME280;42700;42.524;12.052;2022-08-06T06:28:26;93214.28;;;28.06;100.00
56198;BME280;42700;42.524;12.052;2022-08-06T06:30:56;92788.22;;;28.09;100.00
56198;BME280;42700;42.524;12.052;2022-08-06T06:36:10;92300.22;;;28.57;100.00
56198;BME280;42700;42.524;12.052;2022-08-06T06:38:47;91994.69;;;28.73;100.00
56198;BME280;42700;42.524;12.052;2022-08-06T06:41:18;91802.69;;;28.83;100.00
56198;BME280;42700;42.524;12.052;2022-08-06T06:48:54;91143.78;;;29.19;100.00
56198;BME280;42700;42.524;12.052;2022-08-06T06:51:25;91450.44;;;29.25;100.00
56198;BME280;42700;42.524;12.052;2022-08-06T06:53:53;91485.34;;;29.31;100.00
56198;BME280;42700;42.524;12.052;2022-08-06T06:56:21;91158.66;;;29.27;100.00
56198;BME280;42700;42.524;12.052;2022-08-06T06:58:50;91038.25;;;29.35;100.00
56198;BME280;42700;42.524;12.052;2022-08-06T07:01:17;91331.66;;;29.71;100.00
56198;BME280;42700;42.524;12.052;2022-08-06T07:03:44;90675.19;;;29.74;100.00
56198;BME280;42700;42.524;12.052;2022-08-06T07:06:11;90083.69;;;29.61;100.00
56198;BME280;42700;42.524;12.052;2022-08-06T07:08:37;90165.56;;;29.82;100.00
56198;BME280;42700;42.524;12.052;2022-08-06T07:11:06;89950.91;;;29.96;100.00
56198;BME280;42700;42.524;12.052;2022-08-06T07:13:32;90185.63;;;29.99;100.00
56198;BME280;42700;42.524;12.052;2022-08-06T07:16:00;90181.72;;;30.32;100.00
56198;BME280;42700;42.524;12.052;2022-08-06T07:18:27;89128.84;;;30.15;100.00
56198;BME280;42700;42.524;12.052;2022-08-06T07:20:53;89162.78;;;30.31;100.00
56198;BME280;42700;42.524;12.052;2022-08-06T07:23:19;89951.25;;;30.58;100.00
56198;BME280;42700;42.524;12.052;2022-08-06T07:25:48;89224.91;;;30.66;100.00
56198;BME280;42700;42.524;12.052;2022-08-06T07:28:15;88773.66;;;30.78;100.00
56198;BME280;42700;42.524;12.052;2022-08-06T07:30:41;88278.19;;;30.58;100.00
56198;BME280;42700;42.524;12.052;2022-08-06T07:33:07;88913.41;;;30.93;100.00
56198;BME280;42700;42.524;12.052;2022-08-06T07:35:35;87458.50;;;30.52;100.00
56198;BME280;42700;42.524;12.052;2022-08-06T07:38:04;88049.00;;;30.91;100.00
56198;BME280;42700;42.524;12.052;2022-08-06T07:40:32;88522.63;;;31.16;100.00
56198;BME280;42700;42.524;12.052;2022-08-06T07:43:43;87884.88;;;31.27;100.00
56198;BME280;42700;42.524;12.052;2022-08-06T07:45:49;87252.00;;;31.33;100.00
56198;BME280;42700;42.524;12.052;2022-08-06T07:48:16;86187.22;;;31.11;100.00
56198;BME280;42700;42.524;12.052;2022-08-06T07:50:44;88582.66;;;31.49;100.00
56198;BME280;42700;42.524;12.052;2022-08-06T07:53:11;86262.72;;;31.57;100.00
56198;BME280;42700;42.524;12.052;2022-08-06T07:55:37;87737.28;;;31.83;100.00
56198;BME280;42700;42.524;12.052;2022-08-06T07:58:04;87242.59;;;32.04;100.00
56198;BME280;42700;42.524;12.052;2022-08-06T08:00:30;86947.38;;;32.19;100.00
56198;BME280;42700;42.524;12.052;2022-08-06T08:02:56;86871.53;;;32.32;100.00
56198;BME280;42700;42.524;12.052;2022-08-06T08:05:41;86632.16;;;32.47;100.00
56198;BME280;42700;42.524;12.052;2022-08-06T08:08:27;86405.81;;;32.63;100.00
56198;BME280;42700;42.524;12.052;2022-08-06T08:10:54;86281.44;;;32.68;100.00
56198;BME280;42700;42.524;12.052;2022-08-06T08:13:21;85329.13;;;32.97;100.00
56198;BME280;42700;42.524;12.052;2022-08-06T08:15:47;84638.91;;;32.93;100.00
56198;BME280;42700;42.524;12.052;2022-08-06T08:18:13;84318.53;;;32.80;100.00
56198;BME280;42700;42.524;12.052;2022-08-06T08:20:38;86985.03;;;33.05;100.00
56198;BME280;42700;42.524;12.052;2022-08-06T08:23:05;86554.59;;;33.07;100.00
56198;BME280;42700;42.524;12.052;2022-08-06T08:25:32;83334.47;;;32.85;100.00
56198;BME280;42700;42.524;12.052;2022-08-06T08:27:58;83251.81;;;33.01;100.00
56198;BME280;42700;42.524;12.052;2022-08-06T08:30:23;81427.16;;;32.68;100.00
56198;BME280;42700;42.524;12.052;2022-08-06T08:32:49;85441.41;;;33.39;100.00
56198;BME280;42700;42.524;12.052;2022-08-06T08:35:14;81356.41;;;32.85;100.00
56198;BME280;42700;42.524;12.052;2022-08-06T08:37:41;78351.97;;;32.60;100.00
56198;BME280;42700;42.524;12.052;2022-08-06T08:40:06;82545.72;;;33.41;100.00
56198;BME280;42700;42.524;12.052;2022-08-06T08:42:42;83393.13;;;33.61;100.00
56198;BME280;42700;42.524;12.052;2022-08-06T08:45:10;82163.19;;;33.77;100.00
56198;BME280;42700;42.524;12.052;2022-08-06T08:47:37;84308.31;;;34.01;100.00
56198;BME280;42700;42.524;12.052;2022-08-06T08:50:04;87600.94;;;34.28;100.00
56198;BME280;42700;42.524;12.052;2022-08-06T08:52:33;87059.13;;;34.63;100.00
56198;BME280;42700;42.524;12.052;2022-08-06T08:55:04;81018.91;;;34.66;100.00
56198;BME280;42700;42.524;12.052;2022-08-06T08:57:30;85490.81;;;34.94;100.00
56198;BME280;42700;42.524;12.052;2022-08-06T08:59:56;74696.91;;;33.88;100.00
56198;BME280;42700;42.524;12.052;2022-08-06T09:02:21;79634.63;;;34.40;100.00
56198;BME280;42700;42.524;12.052;2022-08-06T09:04:48;75275.19;;;34.38;100.00
56198;BME280;42700;42.524;12.052;2022-08-06T09:07:14;76826.38;;;34.93;100.00
56198;BME280;42700;42.524;12.052;2022-08-06T09:09:41;73701.66;;;34.69;100.00
56198;BME280;42700;42.524;12.052;2022-08-06T09:12:06;76112.03;;;35.23;100.00
56198;BME280;42700;42.524;12.052;2022-08-06T09:14:33;82107.28;;;35.62;100.00
56198;BME280;42700;42.524;12.052;2022-08-06T09:16:58;74146.41;;;35.36;100.00
56198;BME280;42700;42.524;12.052;2022-08-06T09:19:24;83249.63;;;35.94;100.00
56198;BME280;42700;42.524;12.052;2022-08-06T09:21:54;74463.63;;;35.44;100.00
56198;BME280;42700;42.524;12.052;2022-08-06T09:24:20;74107.81;;;35.89;100.00
56198;BME280;42700;42.524;12.052;2022-08-06T09:29:29;75977.53;;;36.33;100.00
56198;BME280;42700;42.524;12.052;2022-08-06T09:31:55;70773.00;;;36.03;100.00
56198;BME280;42700;42.524;12.052;2022-08-06T09:34:20;79183.16;;;36.49;100.00
56198;BME280;42700;42.524;12.052;2022-08-06T09:36:47;76087.25;;;36.42;100.00
56198;BME280;42700;42.524;12.052;2022-08-06T09:39:13;78844.66;;;36.71;100.00
56198;BME280;42700;42.524;12.052;2022-08-06T09:41:48;81740.53;;;37.10;100.00
56198;BME280;42700;42.524;12.052;2022-08-06T09:44:14;78518.63;;;37.26;100.00
56198;BME280;42700;42.524;12.052;2022-08-06T09:46:43;74888.88;;;37.37;100.00
56198;BME280;42700;42.524;12.052;2022-08-06T09:49:10;76698.91;;;37.67;100.00
56198;BME280;42700;42.524;12.052;2022-08-06T09:51:36;66244.00;;;36.76;94.34
56198;BME280;42700;42.524;12.052;2022-08-06T09:54:03;81608.28;;;37.60;100.00
56198;BME280;42700;42.524;12.052;2022-08-06T09:56:29;72022.94;;;37.34;100.00
56198;BME280;42700;42.524;12.052;2022-08-06T09:59:01;70249.31;;;37.26;100.00
56198;BME280;42700;42.524;12.052;2022-08-06T10:01:27;69317.53;;;37.17;100.00
56198;BME280;42700;42.524;12.052;2022-08-06T10:03:55;67219.50;;;37.30;94.26
56198;BME280;42700;42.524;12.052;2022-08-06T10:06:21;78853.69;;;38.21;100.00
56198;BME280;42700;42.524;12.052;2022-08-06T10:08:47;72669.00;;;37.82;94.79
56198;BME280;42700;42.524;12.052;2022-08-06T10:11:13;64735.16;;;36.24;94.29
56198;BME280;42700;42.524;12.052;2022-08-06T10:13:39;67068.50;;;37.07;95.28
56198;BME280;42700;42.524;12.052;2022-08-06T10:16:19;59350.72;;;35.43;92.78
56198;BME280;42700;42.524;12.052;2022-08-06T10:18:46;68987.06;;;36.69;100.00
56198;BME280;42700;42.524;12.052;2022-08-06T10:21:12;68917.41;;;36.93;90.77
56198;BME280;42700;42.524;12.052;2022-08-06T10:23:40;68653.56;;;37.52;89.46
56198;BME280;42700;42.524;12.052;2022-08-06T10:26:07;69908.81;;;38.12;91.29
56198;BME280;42700;42.524;12.052;2022-08-06T10:28:33;72754.19;;;38.55;100.00
56198;BME280;42700;42.524;12.052;2022-08-06T10:31:01;66319.59;;;37.97;84.74
56198;BME280;42700;42.524;12.052;2022-08-06T10:33:28;62935.38;;;37.40;82.72
56198;BME280;42700;42.524;12.052;2022-08-06T10:35:57;65472.88;;;36.97;88.63
56198;BME280;42700;42.524;12.052;2022-08-06T10:38:26;67665.28;;;37.76;84.83
56198;BME280;42700;42.524;12.052;2022-08-06T10:40:54;60160.97;;;36.64;80.56
56198;BME280;42700;42.524;12.052;2022-08-06T10:43:21;61988.72;;;37.10;86.03
56198;BME280;42700;42.524;12.052;2022-08-06T10:45:47;69728.78;;;38.40;89.45
56198;BME280;42700;42.524;12.052;2022-08-06T10:48:14;57993.44;;;37.35;65.50
56198;BME280;42700;42.524;12.052;2022-08-06T10:50:40;58497.06;;;37.51;63.40
56198;BME280;42700;42.524;12.052;2022-08-06T10:53:05;57310.03;;;37.72;67.34
56198;BME280;42700;42.524;12.052;2022-08-06T10:55:33;55620.47;;;37.53;58.43
56198;BME280;42700;42.524;12.052;2022-08-06T10:57:59;55261.75;;;37.65;57.59
56198;BME280;42700;42.524;12.052;2022-08-06T11:00:25;57412.31;;;38.16;57.50
56198;BME280;42700;42.524;12.052;2022-08-06T11:03:03;56585.41;;;38.12;62.35
56198;BME280;42700;42.524;12.052;2022-08-06T11:05:35;55572.91;;;38.15;60.75
56198;BME280;42700;42.524;12.052;2022-08-06T11:16:09;64462.28;;;39.51;61.21
56198;BME280;42700;42.524;12.052;2022-08-06T11:19:00;68829.38;;;40.21;68.75
56198;BME280;42700;42.524;12.052;2022-08-06T11:21:42;62149.44;;;39.29;56.95
56198;BME280;42700;42.524;12.052;2022-08-06T11:24:08;61054.16;;;39.45;55.10
56198;BME280;42700;42.524;12.052;2022-08-06T11:26:35;66995.47;;;40.43;61.65
56198;BME280;42700;42.524;12.052;2022-08-06T11:29:01;58574.47;;;39.07;55.89
56198;BME280;42700;42.524;12.052;2022-08-06T11:31:45;59790.44;;;38.85;69.18
56198;BME280;42700;42.524;12.052;2022-08-06T11:34:13;60861.38;;;39.06;65.92
56198;BME280;42700;42.524;12.052;2022-08-06T11:36:43;64727.94;;;39.94;57.10
56198;BME280;42700;42.524;12.052;2022-08-06T11:39:09;59716.00;;;39.10;61.51
56198;BME280;42700;42.524;12.052;2022-08-06T11:41:54;64057.41;;;40.01;57.44
56198;BME280;42700;42.524;12.052;2022-08-06T11:44:24;63742.16;;;40.00;61.24
56198;BME280;42700;42.524;12.052;2022-08-06T11:47:05;63233.94;;;39.64;61.61
56198;BME280;42700;42.524;12.052;2022-08-06T11:49:39;61944.25;;;39.27;61.18
56198;BME280;42700;42.524;12.052;2022-08-06T11:52:05;63648.31;;;39.89;58.09
56198;BME280;42700;42.524;12.052;2022-08-06T11:59:35;64403.28;;;39.73;66.40
56198;BME280;42700;42.524;12.052;2022-08-06T12:02:02;63363.78;;;39.80;60.17
56198;BME280;42700;42.524;12.052;2022-08-06T12:07:16;69689.75;;;40.89;67.91
56198;BME280;42700;42.524;12.052;2022-08-06T12:09:42;75851.78;;;42.14;67.41
56198;BME280;42700;42.524;12.052;2022-08-06T12:13:08;77966.56;;;42.68;62.25
56198;BME280;42700;42.524;12.052;2022-08-06T12:20:32;60615.41;;;40.31;52.26
56198;BME280;42700;42.524;12.052;2022-08-06T12:22:58;65775.59;;;41.13;53.83
56198;BME280;42700;42.524;12.052;2022-08-06T12:28:00;71429.22;;;41.86;60.44
56198;BME280;42700;42.524;12.052;2022-08-06T12:30:26;75114.22;;;42.62;63.53
56198;BME280;42700;42.524;12.052;2022-08-06T12:33:01;71346.09;;;42.32;54.43
56198;BME280;42700;42.524;12.052;2022-08-06T12:35:26;52800.38;;;38.68;54.77
56198;BME280;42700;42.524;12.052;2022-08-06T12:37:52;59640.69;;;39.66;52.99
56198;BME280;42700;42.524;12.052;2022-08-06T12:40:19;56783.75;;;39.20;51.68
56198;BME280;42700;42.524;12.052;2022-08-06T12:43:16;59885.59;;;39.77;51.97
56198;BME280;42700;42.524;12.052;2022-08-06T12:45:41;64238.41;;;40.82;49.10
56198;BME280;42700;42.524;12.052;2022-08-06T12:48:08;59995.25;;;40.05;50.90
56198;BME280;42700;42.524;12.052;2022-08-06T12:50:35;68160.59;;;41.56;49.40
56198;BME280;42700;42.524;12.052;2022-08-06T12:53:02;74035.97;;;42.82;57.37
56198;BME280;42700;42.524;12.052;2022-08-06T12:55:32;60957.34;;;40.81;47.76
56198;BME280;42700;42.524;12.052;2022-08-06T12:57:58;67590.13;;;42.11;55.94
56198;BME280;42700;42.524;12.052;2022-08-06T13:00:25;73886.78;;;43.29;56.53
56198;BME280;42700;42.524;12.052;2022-08-06T13:02:52;57136.38;;;40.33;45.40
56198;BME280;42700;42.524;12.052;2022-08-06T13:05:18;54403.94;;;39.25;52.93
56198;BME280;42700;42.524;12.052;2022-08-06T13:07:45;55775.97;;;39.02;57.64
56198;BME280;42700;42.524;12.052;2022-08-06T13:10:12;52069.19;;;37.66;58.36
56198;BME280;42700;42.524;12.052;2022-08-06T13:12:39;50984.94;;;37.30;57.13
56198;BME280;42700;42.524;12.052;2022-08-06T13:15:14;51142.13;;;36.83;62.42
56198;BME280;42700;42.524;12.052;2022-08-06T13:17:40;58679.47;;;38.33;63.67
56198;BME280;42700;42.524;12.052;2022-08-06T13:20:06;66462.69;;;40.02;58.63
56198;BME280;42700;42.524;12.052;2022-08-06T13:22:47;64185.88;;;40.00;56.50
56198;BME280;42700;42.524;12.052;2022-08-06T13:25:14;59876.03;;;39.39;49.58
56198;BME280;42700;42.524;12.052;2022-08-06T13:27:42;58394.53;;;38.94;51.25
56198;BME280;42700;42.524;12.052;2022-08-06T13:30:08;59300.63;;;39.07;58.64
56198;BME280;42700;42.524;12.052;2022-08-06T13:32:34;57993.94;;;38.63;53.87
56198;BME280;42700;42.524;12.052;2022-08-06T13:35:01;60014.91;;;39.01;56.82
56198;BME280;42700;42.524;12.052;2022-08-06T13:37:41;65452.59;;;39.75;61.37